Manilla, Indiana
Current Conditions -  °F | °C
As of 4:28 AM on Wednesday 22 Oct 2014 (Local Time) from KGEZ Reporting Station
Broken Clouds Broken Clouds  
Wind Chill: 41°   Ceiling: 2600
Heat Index: 41°   Visibility: 10mi
Dew Point: 36°   Wind: 3mph
Humidity: 82%   Direction: 10°N
Pressure: 30.23"   Gusts: NA
Location:  39.57°N, 85.62°W
Report Text: KGEZ 220828Z AUTO 01003KT 10SM BKN026 05/02 A3023 RMK AO2 T00500022
Loading
Personal Weather Stations






























Interactive Weather Map
Tropical Storm Tracking
New forecast layout! Learn more

10-Day Weather Forecast

Advertisements
Track Severe Weather on mobile